createdAt,value
2023-12-28T00:02:12.614Z,46.21
2023-12-28T00:04:39.343Z,45.59
2023-12-28T00:07:06.068Z,46.69
2023-12-28T00:09:32.953Z,47.12
2023-12-28T00:12:00.147Z,46.74
2023-12-28T00:14:26.952Z,46.98
2023-12-28T00:16:53.729Z,46.71
2023-12-28T00:19:22.585Z,45.66
2023-12-28T00:21:49.801Z,45.91
2023-12-28T00:24:17.994Z,45.19
2023-12-28T00:26:45.091Z,45.71
2023-12-28T00:29:12.759Z,46.67
2023-12-28T00:31:39.632Z,46.24
2023-12-28T00:34:06.564Z,47.20
2023-12-28T00:36:33.473Z,47.51
2023-12-28T00:39:00.345Z,47.09
2023-12-28T00:41:27.145Z,47.71
2023-12-28T00:43:54.010Z,47.61
2023-12-28T00:46:20.695Z,47.99
2023-12-28T00:48:47.619Z,48.17
2023-12-28T00:51:15.279Z,48.39
2023-12-28T00:53:42.011Z,48.25
2023-12-28T00:56:10.385Z,47.35
2023-12-28T00:58:44.776Z,47.21
2023-12-28T01:01:11.981Z,47.55
2023-12-28T01:03:38.966Z,46.75
2023-12-28T01:06:08.979Z,48.09
2023-12-28T01:08:35.857Z,45.83
2023-12-28T01:11:03.454Z,45.94
2023-12-28T01:13:30.537Z,46.41
2023-12-28T01:15:57.711Z,46.16
2023-12-28T01:18:24.848Z,47.08
2023-12-28T01:20:51.660Z,47.80
2023-12-28T01:23:18.380Z,45.56
2023-12-28T01:25:45.104Z,45.07
2023-12-28T01:28:11.919Z,46.20
2023-12-28T01:30:38.708Z,47.16
2023-12-28T01:33:05.838Z,46.46
2023-12-28T01:35:32.575Z,47.11
2023-12-28T01:38:01.749Z,46.61
2023-12-28T01:40:28.636Z,47.90
2023-12-28T01:42:55.430Z,45.74
2023-12-28T01:45:22.320Z,45.88
2023-12-28T01:47:50.181Z,45.24
2023-12-28T01:50:17.768Z,45.68
2023-12-28T01:52:44.937Z,46.12
2023-12-28T01:55:12.617Z,46.63
2023-12-28T01:57:39.702Z,46.50
2023-12-28T02:00:07.631Z,46.14
2023-12-28T02:02:35.590Z,44.66
2023-12-28T02:05:03.035Z,44.97
2023-12-28T02:07:31.152Z,45.19
2023-12-28T02:09:57.877Z,43.88
2023-12-28T02:12:24.794Z,44.92
2023-12-28T02:14:51.626Z,43.96
2023-12-28T02:17:41.742Z,43.19
2023-12-28T02:20:10.186Z,43.25
2023-12-28T02:22:37.637Z,43.91
2023-12-28T02:25:12.722Z,43.84
2023-12-28T02:27:40.874Z,43.44
2023-12-28T02:30:09.355Z,42.28
2023-12-28T02:32:51.145Z,44.74
2023-12-28T02:35:45.557Z,42.88
2023-12-28T02:38:14.625Z,43.89
2023-12-28T02:40:45.450Z,43.73
2023-12-28T02:43:12.997Z,44.45
2023-12-28T02:45:40.696Z,43.15
2023-12-28T02:48:08.191Z,43.89
2023-12-28T02:50:36.103Z,42.88
2023-12-28T02:53:03.282Z,44.37
2023-12-28T02:55:29.987Z,41.95
2023-12-28T02:58:02.045Z,43.46
2023-12-28T03:00:29.969Z,42.08
2023-12-28T03:02:56.944Z,41.83
2023-12-28T03:05:23.869Z,42.44
2023-12-28T03:07:51.330Z,42.47
2023-12-28T03:10:18.181Z,43.10
2023-12-28T03:12:45.095Z,43.04
2023-12-28T03:15:12.081Z,43.00
2023-12-28T03:17:39.002Z,44.86
2023-12-28T03:20:07.163Z,45.55
2023-12-28T03:22:34.287Z,43.83
2023-12-28T03:25:01.193Z,44.85
2023-12-28T03:27:28.015Z,44.53
2023-12-28T03:29:54.828Z,43.98
2023-12-28T03:32:21.653Z,45.67
2023-12-28T03:34:48.439Z,45.30
2023-12-28T03:37:15.245Z,46.38
2023-12-28T03:39:42.265Z,45.26
2023-12-28T03:42:09.003Z,45.64
2023-12-28T03:44:35.782Z,45.13
2023-12-28T03:47:02.528Z,45.07
2023-12-28T03:49:29.395Z,45.72
2023-12-28T03:51:56.359Z,46.44
2023-12-28T03:54:23.196Z,46.14
2023-12-28T03:56:49.939Z,46.30
2023-12-28T03:59:16.833Z,45.94
2023-12-28T04:01:43.790Z,46.16
2023-12-28T04:04:11.286Z,47.67
2023-12-28T04:06:39.267Z,46.69
2023-12-28T04:09:06.372Z,48.51
2023-12-28T04:11:33.313Z,47.33
2023-12-28T04:14:00.305Z,46.75
2023-12-28T04:16:27.076Z,46.07
2023-12-28T04:18:53.930Z,46.57
2023-12-28T04:21:20.851Z,46.63
2023-12-28T04:23:47.590Z,45.80
2023-12-28T04:26:14.587Z,46.40
2023-12-28T04:28:41.434Z,46.00
2023-12-28T04:31:08.865Z,47.17
2023-12-28T04:33:36.133Z,46.46
2023-12-28T04:36:07.157Z,46.69
2023-12-28T04:38:34.301Z,46.93
2023-12-28T04:41:01.632Z,45.85
2023-12-28T04:43:28.499Z,46.64
2023-12-28T04:45:55.354Z,46.41
2023-12-28T04:48:25.002Z,45.85
2023-12-28T04:50:52.432Z,45.29
2023-12-28T04:53:19.132Z,45.09
2023-12-28T04:55:45.819Z,45.81
2023-12-28T04:58:13.437Z,46.50
2023-12-28T05:00:40.438Z,45.15
2023-12-28T05:03:07.707Z,44.14
2023-12-28T05:05:34.772Z,45.84
2023-12-28T05:08:01.925Z,45.56
2023-12-28T05:10:28.902Z,44.91
2023-12-28T05:13:01.488Z,44.50
2023-12-28T05:15:29.601Z,46.87
2023-12-28T05:17:56.741Z,46.00
2023-12-28T05:20:23.921Z,45.67
2023-12-28T05:22:51.284Z,45.15
2023-12-28T05:25:18.191Z,45.74
2023-12-28T05:27:45.225Z,46.02
2023-12-28T05:30:13.367Z,45.64
2023-12-28T05:32:40.993Z,44.61
2023-12-28T05:35:08.798Z,43.45
2023-12-28T05:37:35.730Z,43.19
2023-12-28T05:40:02.947Z,44.38
2023-12-28T05:42:29.784Z,44.46
2023-12-28T05:44:56.480Z,44.37
2023-12-28T05:47:23.303Z,43.65
2023-12-28T05:49:50.226Z,45.59
2023-12-28T05:52:19.890Z,44.51
2023-12-28T05:54:47.198Z,44.74
2023-12-28T05:57:14.053Z,45.51
2023-12-28T05:59:43.689Z,45.31
2023-12-28T06:02:10.598Z,44.22
2023-12-28T06:04:37.620Z,44.21
2023-12-28T06:07:05.405Z,45.34
2023-12-28T06:09:33.104Z,44.30
2023-12-28T06:12:00.102Z,45.98
2023-12-28T06:14:26.923Z,43.78
2023-12-28T06:16:53.709Z,43.89
2023-12-28T06:19:20.577Z,42.50
2023-12-28T06:21:47.433Z,43.36
2023-12-28T06:24:14.348Z,44.77
2023-12-28T06:26:42.517Z,45.39
2023-12-28T06:29:10.632Z,44.64
2023-12-28T06:31:38.612Z,44.88
2023-12-28T06:34:06.435Z,44.18
2023-12-28T06:36:33.770Z,45.49
2023-12-28T06:39:01.070Z,44.48
2023-12-28T06:41:28.045Z,43.16
2023-12-28T06:43:54.913Z,45.16
2023-12-28T06:46:21.816Z,44.41
2023-12-28T06:48:49.199Z,44.13
2023-12-28T06:51:23.771Z,42.80
2023-12-28T06:53:51.185Z,42.82
2023-12-28T06:56:18.572Z,42.98
2023-12-28T06:58:45.942Z,43.21
2023-12-28T07:01:13.789Z,43.67
2023-12-28T07:03:41.732Z,42.45
2023-12-28T07:06:09.662Z,43.03
2023-12-28T07:08:37.499Z,43.53
2023-12-28T07:11:05.492Z,43.34
2023-12-28T07:13:32.843Z,43.46
2023-12-28T07:16:00.603Z,42.10
2023-12-28T07:18:28.810Z,42.72
2023-12-28T07:20:56.405Z,42.94
2023-12-28T07:23:23.209Z,42.47
2023-12-28T07:25:50.113Z,42.48
2023-12-28T07:28:16.970Z,44.73
2023-12-28T07:30:44.032Z,45.44
2023-12-28T07:33:11.054Z,43.54
2023-12-28T07:35:38.302Z,44.15
2023-12-28T07:38:05.104Z,43.81
2023-12-28T07:40:31.946Z,44.60
2023-12-28T07:42:59.035Z,42.72
2023-12-28T07:45:26.180Z,41.40
2023-12-28T07:47:53.770Z,43.51
2023-12-28T07:50:21.062Z,42.49
2023-12-28T07:52:49.322Z,43.89
2023-12-28T07:55:16.768Z,41.48
2023-12-28T07:57:44.135Z,42.33
2023-12-28T08:00:11.772Z,41.86
2023-12-28T08:02:38.919Z,41.91
2023-12-28T08:05:06.716Z,42.91
2023-12-28T08:07:33.593Z,41.50
2023-12-28T08:10:00.739Z,40.89
2023-12-28T08:12:30.425Z,42.66
2023-12-28T08:14:57.615Z,41.62
2023-12-28T08:17:24.559Z,41.53
2023-12-28T08:19:51.755Z,43.46
2023-12-28T08:22:20.090Z,41.33
2023-12-28T08:24:47.128Z,41.55
2023-12-28T08:27:14.154Z,41.16
2023-12-28T08:29:43.429Z,41.33
2023-12-28T08:32:12.029Z,42.48
2023-12-28T08:34:39.555Z,40.97
2023-12-28T08:37:08.314Z,41.05
2023-12-28T08:39:35.144Z,40.85
2023-12-28T08:42:02.185Z,41.22
2023-12-28T08:44:29.011Z,41.63
2023-12-28T08:46:55.905Z,40.12
2023-12-28T08:49:24.597Z,40.77
2023-12-28T08:51:51.837Z,40.74
2023-12-28T08:54:19.014Z,39.51
2023-12-28T08:56:48.085Z,40.32
2023-12-28T08:59:16.338Z,41.26
2023-12-28T09:01:43.058Z,41.96
2023-12-28T09:04:10.103Z,40.56
2023-12-28T09:06:37.026Z,40.65
2023-12-28T09:09:05.048Z,40.10
2023-12-28T09:11:31.987Z,39.51
2023-12-28T09:13:58.691Z,40.20
2023-12-28T09:16:25.453Z,39.46
2023-12-28T09:18:52.559Z,38.52
2023-12-28T09:21:19.426Z,39.96
2023-12-28T09:23:46.159Z,40.04
2023-12-28T09:26:13.014Z,38.64
2023-12-28T09:28:39.799Z,38.91
2023-12-28T09:31:06.862Z,38.62
2023-12-28T09:33:33.875Z,38.45
2023-12-28T09:36:01.076Z,37.71
2023-12-28T09:38:29.210Z,38.80
2023-12-28T09:40:59.350Z,38.91
2023-12-28T09:43:31.896Z,38.65
2023-12-28T09:45:58.681Z,38.22
2023-12-28T09:48:26.056Z,38.90
2023-12-28T09:50:58.676Z,38.35
2023-12-28T09:53:26.565Z,37.89
2023-12-28T09:55:53.953Z,38.10
2023-12-28T09:58:22.336Z,38.26
2023-12-28T10:00:51.010Z,38.42
2023-12-28T10:03:18.964Z,38.91
2023-12-28T10:05:49.337Z,36.54
2023-12-28T10:08:17.214Z,34.87
2023-12-28T10:10:52.278Z,37.71
2023-12-28T10:13:19.372Z,36.18
2023-12-28T10:15:46.332Z,37.45
2023-12-28T10:18:13.523Z,37.44
2023-12-28T10:20:40.639Z,37.65
2023-12-28T10:23:08.346Z,37.17
2023-12-28T10:25:37.265Z,37.93
2023-12-28T10:28:09.741Z,38.06
2023-12-28T10:30:36.666Z,38.03
2023-12-28T10:33:07.584Z,36.98
2023-12-28T10:35:35.201Z,36.86
2023-12-28T10:38:04.780Z,37.48
2023-12-28T10:40:36.509Z,35.40
2023-12-28T10:43:11.380Z,36.40
2023-12-28T10:45:41.052Z,36.90
2023-12-28T10:48:09.348Z,36.62
2023-12-28T10:50:58.440Z,36.23
2023-12-28T10:53:30.932Z,36.80
2023-12-28T10:56:29.252Z,35.78
2023-12-28T10:59:17.015Z,36.40
2023-12-28T11:01:48.149Z,36.46
2023-12-28T11:04:28.792Z,35.12
2023-12-28T11:06:57.459Z,33.40
2023-12-28T11:09:25.537Z,35.09
2023-12-28T11:11:52.728Z,34.27
2023-12-28T11:14:19.589Z,34.08
2023-12-28T11:16:46.870Z,34.07
2023-12-28T11:19:14.467Z,34.75
2023-12-28T11:21:41.932Z,34.46
2023-12-28T11:24:09.297Z,35.14
2023-12-28T11:26:36.075Z,34.82
2023-12-28T11:29:04.206Z,34.41
2023-12-28T11:31:37.849Z,33.45
2023-12-28T11:34:12.698Z,33.98
2023-12-28T11:36:52.768Z,33.86
2023-12-28T11:39:35.990Z,35.05
2023-12-28T11:42:06.381Z,35.64
2023-12-28T11:44:45.192Z,34.00
2023-12-28T11:47:32.151Z,34.47
2023-12-28T11:50:08.670Z,32.67
2023-12-28T11:52:35.410Z,31.66
2023-12-28T11:55:02.614Z,32.05
2023-12-28T11:57:29.703Z,33.40
2023-12-28T12:00:01.243Z,32.72
2023-12-28T12:02:28.360Z,31.38
2023-12-28T12:04:56.596Z,32.03
2023-12-28T12:07:23.434Z,31.95
2023-12-28T12:09:50.217Z,30.90
2023-12-28T12:12:17.615Z,34.28
2023-12-28T12:14:44.485Z,32.07
2023-12-28T12:17:11.655Z,30.00
2023-12-28T12:19:39.167Z,31.33
2023-12-28T12:22:06.150Z,32.43
2023-12-28T12:24:34.426Z,34.43
2023-12-28T12:27:03.489Z,34.97
2023-12-28T12:29:33.147Z,33.19
2023-12-28T12:32:00.311Z,34.13
2023-12-28T12:34:27.371Z,33.41
2023-12-28T12:36:56.128Z,35.28
2023-12-28T12:39:26.689Z,36.34
2023-12-28T12:41:53.839Z,33.44
2023-12-28T12:44:21.879Z,35.44
2023-12-28T12:46:48.904Z,34.93
2023-12-28T12:49:17.610Z,36.10
2023-12-28T12:51:46.715Z,35.32
2023-12-28T12:54:13.569Z,34.51
2023-12-28T12:56:46.694Z,35.20
2023-12-28T12:59:18.929Z,36.48
2023-12-28T13:01:50.161Z,36.87
2023-12-28T13:04:21.080Z,37.78
2023-12-28T13:06:47.994Z,37.33
2023-12-28T13:09:14.891Z,35.65
2023-12-28T13:11:41.715Z,35.64
2023-12-28T13:14:08.505Z,34.25
2023-12-28T13:16:35.221Z,32.53
2023-12-28T13:19:10.109Z,33.61
2023-12-28T13:21:37.109Z,32.77
2023-12-28T13:24:04.262Z,33.41
2023-12-28T13:26:30.995Z,34.36
2023-12-28T13:28:57.928Z,32.35
2023-12-28T13:31:26.272Z,34.31
2023-12-28T13:33:53.414Z,33.25
2023-12-28T13:36:20.291Z,32.63
2023-12-28T13:38:47.028Z,33.93
2023-12-28T13:41:13.793Z,33.51
2023-12-28T13:43:40.562Z,34.84
2023-12-28T13:46:07.331Z,35.49
2023-12-28T13:48:34.331Z,34.50
2023-12-28T13:51:01.119Z,34.57
2023-12-28T13:53:27.813Z,35.93
2023-12-28T13:55:54.515Z,35.69
2023-12-28T13:58:21.277Z,38.17
2023-12-28T14:00:48.302Z,37.86
2023-12-28T14:03:15.242Z,37.80
2023-12-28T14:08:10.606Z,37.70
2023-12-28T14:10:39.430Z,39.08
2023-12-28T14:13:07.167Z,38.71
2023-12-28T14:15:34.033Z,39.35
2023-12-28T14:18:01.057Z,38.58
2023-12-28T14:20:29.161Z,37.74
2023-12-28T14:22:56.648Z,37.94
2023-12-28T14:25:24.364Z,37.19
2023-12-28T14:27:53.070Z,39.86
2023-12-28T14:30:20.785Z,39.17
2023-12-28T14:32:47.978Z,38.75
2023-12-28T14:35:18.010Z,40.58
2023-12-28T14:37:46.005Z,39.94
2023-12-28T14:40:12.916Z,41.75
2023-12-28T14:42:40.457Z,41.02
2023-12-28T14:45:07.838Z,41.39
2023-12-28T14:47:34.929Z,43.08
2023-12-28T14:50:02.647Z,41.81
2023-12-28T14:52:29.873Z,40.97
2023-12-28T14:54:56.637Z,43.06
2023-12-28T14:57:24.011Z,42.80
2023-12-28T14:59:51.425Z,41.88
2023-12-28T15:02:18.113Z,42.42
2023-12-28T15:04:45.058Z,42.22
2023-12-28T15:07:11.994Z,42.16
2023-12-28T15:09:39.063Z,43.87
2023-12-28T15:12:06.418Z,43.52
2023-12-28T15:14:33.414Z,42.27
2023-12-28T15:17:00.493Z,42.30
2023-12-28T15:19:27.771Z,42.96
2023-12-28T15:21:54.887Z,44.66
2023-12-28T15:24:22.104Z,45.63
2023-12-28T15:26:49.050Z,43.75
2023-12-28T15:29:16.909Z,43.19
2023-12-28T15:31:43.876Z,44.71
2023-12-28T15:34:11.070Z,44.83
2023-12-28T15:36:37.982Z,43.71
2023-12-28T15:39:06.648Z,42.63
2023-12-28T15:41:34.226Z,44.97
2023-12-28T15:44:01.019Z,44.88
2023-12-28T15:46:27.763Z,44.39
2023-12-28T15:48:54.649Z,43.67
2023-12-28T15:51:21.495Z,44.57
2023-12-28T15:53:48.208Z,44.44
2023-12-28T15:56:19.141Z,45.66
2023-12-28T15:58:46.757Z,44.34
2023-12-28T16:01:13.905Z,44.72
2023-12-28T16:03:40.986Z,43.79
2023-12-28T16:06:12.066Z,45.58
2023-12-28T16:08:39.001Z,45.65
2023-12-28T16:11:06.942Z,43.54
2023-12-28T16:13:34.874Z,43.62
2023-12-28T16:16:02.417Z,46.82
2023-12-28T16:18:30.191Z,45.42
2023-12-28T16:20:57.717Z,47.33
2023-12-28T16:23:25.035Z,46.27
2023-12-28T16:25:51.813Z,46.72
2023-12-28T16:28:18.659Z,47.13
2023-12-28T16:30:45.626Z,46.04
2023-12-28T16:33:12.559Z,46.63
2023-12-28T16:35:39.277Z,43.83
2023-12-28T16:38:06.023Z,45.71
2023-12-28T16:40:32.797Z,45.74
2023-12-28T16:42:59.592Z,45.58
2023-12-28T16:45:26.510Z,46.02
2023-12-28T16:47:53.328Z,47.19
2023-12-28T16:50:25.163Z,47.39
2023-12-28T16:52:55.288Z,46.92
2023-12-28T16:55:22.165Z,48.42
2023-12-28T16:57:48.985Z,45.01
2023-12-28T17:00:16.346Z,47.52
2023-12-28T17:02:43.061Z,46.17
2023-12-28T17:05:11.741Z,48.30
2023-12-28T17:07:38.885Z,48.66
2023-12-28T17:10:06.366Z,47.30
2023-12-28T17:12:43.100Z,49.12
2023-12-28T17:15:12.107Z,47.95
2023-12-28T17:17:40.598Z,47.08
2023-12-28T17:20:08.054Z,47.64
2023-12-28T17:22:45.232Z,46.43
2023-12-28T17:25:36.600Z,47.53
2023-12-28T17:28:11.257Z,47.20
2023-12-28T17:30:38.916Z,48.68
2023-12-28T17:33:06.637Z,47.85
2023-12-28T17:35:33.605Z,46.41
2023-12-28T17:38:02.371Z,46.57
2023-12-28T17:40:29.661Z,47.21
2023-12-28T17:43:26.803Z,45.89
2023-12-28T17:46:00.565Z,46.97
2023-12-28T17:48:33.886Z,45.66
2023-12-28T17:51:02.578Z,46.12
2023-12-28T17:53:29.540Z,46.99
2023-12-28T17:55:56.344Z,46.84
2023-12-28T17:58:23.125Z,46.62
2023-12-28T18:00:51.586Z,43.93
2023-12-28T18:03:18.372Z,46.48
2023-12-28T18:05:45.238Z,47.57
2023-12-28T18:08:13.791Z,47.42
2023-12-28T18:10:40.516Z,46.44
2023-12-28T18:13:08.846Z,47.05
2023-12-28T18:15:36.344Z,44.53
2023-12-28T18:18:03.540Z,46.90
2023-12-28T18:20:30.634Z,46.15
2023-12-28T18:22:57.355Z,48.47
2023-12-28T18:25:24.193Z,47.39
2023-12-28T18:27:50.948Z,49.56
2023-12-28T18:30:17.722Z,48.84
2023-12-28T18:32:46.037Z,48.36
2023-12-28T18:35:14.271Z,48.93
2023-12-28T18:37:42.752Z,48.10
2023-12-28T18:40:10.113Z,49.86
2023-12-28T18:42:38.557Z,49.11
2023-12-28T18:45:07.141Z,49.17
2023-12-28T18:47:34.020Z,47.34
2023-12-28T18:50:01.172Z,49.59
2023-12-28T18:52:27.947Z,50.07
2023-12-28T18:54:55.285Z,51.45
2023-12-28T18:57:24.614Z,48.98
2023-12-28T18:59:52.512Z,48.37
2023-12-28T19:02:23.005Z,49.62
2023-12-28T19:04:49.917Z,49.59
2023-12-28T19:07:16.750Z,50.86
2023-12-28T19:09:43.723Z,48.93
2023-12-28T19:12:12.553Z,50.71
2023-12-28T19:14:43.471Z,49.29
2023-12-28T19:17:11.980Z,50.55
2023-12-28T19:19:39.990Z,49.19
2023-12-28T19:24:33.468Z,47.99
2023-12-28T19:27:00.215Z,48.01
2023-12-28T19:29:27.110Z,50.10
2023-12-28T19:31:53.941Z,49.00
2023-12-28T19:34:21.047Z,49.33
2023-12-28T19:36:47.913Z,49.14
2023-12-28T19:39:14.633Z,47.86
2023-12-28T19:41:41.396Z,50.33
2023-12-28T19:44:08.184Z,50.43
2023-12-28T19:46:37.376Z,49.78
2023-12-28T19:49:04.664Z,49.28
2023-12-28T19:51:31.815Z,50.89
2023-12-28T19:53:58.617Z,51.86
2023-12-28T19:56:25.478Z,51.57
2023-12-28T19:58:52.227Z,50.17
2023-12-28T20:01:19.042Z,50.02
2023-12-28T20:03:45.901Z,51.93
2023-12-28T20:06:12.876Z,52.96
2023-12-28T20:08:40.800Z,51.37
2023-12-28T20:11:08.076Z,51.41
2023-12-28T20:13:34.962Z,50.22
2023-12-28T20:16:01.793Z,49.70
2023-12-28T20:18:28.735Z,49.67
2023-12-28T20:20:55.700Z,49.15
2023-12-28T20:23:22.641Z,49.03
2023-12-28T20:25:49.431Z,49.23
2023-12-28T20:28:16.280Z,49.13
2023-12-28T20:30:43.245Z,50.21
2023-12-28T20:33:14.101Z,50.29
2023-12-28T20:35:41.427Z,51.09
2023-12-28T20:38:08.217Z,50.24
2023-12-28T20:40:34.908Z,52.62
2023-12-28T20:43:02.022Z,53.01
2023-12-28T20:45:28.857Z,53.39
2023-12-28T20:47:55.716Z,53.26
2023-12-28T20:50:22.734Z,52.88
2023-12-28T20:52:49.562Z,53.56
2023-12-28T20:55:16.264Z,51.91
2023-12-28T20:57:43.042Z,55.59
2023-12-28T21:00:10.425Z,52.48
2023-12-28T21:02:37.120Z,54.46
2023-12-28T21:05:04.265Z,55.15
2023-12-28T21:07:31.080Z,53.35
2023-12-28T21:09:57.879Z,53.72
2023-12-28T21:12:25.148Z,54.05
2023-12-28T21:14:52.060Z,54.80
2023-12-28T21:17:19.056Z,54.74
2023-12-28T21:19:47.820Z,56.07
2023-12-28T21:22:15.960Z,54.99
2023-12-28T21:24:43.245Z,56.82
2023-12-28T21:27:10.893Z,54.33
2023-12-28T21:29:40.486Z,54.67
2023-12-28T21:32:08.654Z,54.39
2023-12-28T21:34:35.719Z,55.44
2023-12-28T21:37:03.580Z,55.20
2023-12-28T21:39:30.516Z,55.51
2023-12-28T21:41:57.387Z,55.61
2023-12-28T21:44:24.155Z,56.37
2023-12-28T21:46:50.881Z,54.55
2023-12-28T21:49:17.751Z,54.76
2023-12-28T21:51:45.353Z,53.82
2023-12-28T21:54:12.139Z,56.14
2023-12-28T21:56:39.814Z,54.45
2023-12-28T21:59:07.100Z,55.15
2023-12-28T22:01:34.051Z,56.08
2023-12-28T22:04:01.059Z,55.33
2023-12-28T22:06:27.820Z,55.68
2023-12-28T22:08:56.240Z,55.44
2023-12-28T22:11:23.348Z,55.36
2023-12-28T22:13:50.050Z,56.50
2023-12-28T22:16:16.947Z,56.67
2023-12-28T22:18:44.024Z,55.62
2023-12-28T22:21:10.857Z,56.43
2023-12-28T22:23:37.628Z,57.98
2023-12-28T22:26:05.124Z,56.87
2023-12-28T22:28:31.821Z,56.12
2023-12-28T22:30:58.670Z,55.73
2023-12-28T22:33:25.696Z,58.05
2023-12-28T22:35:52.429Z,58.86
2023-12-28T22:38:19.136Z,57.30
2023-12-28T22:40:46.054Z,56.17
2023-12-28T22:43:12.894Z,55.71
2023-12-28T22:45:39.761Z,55.06
2023-12-28T22:48:07.034Z,55.91
2023-12-28T22:50:33.917Z,56.85
2023-12-28T22:53:01.049Z,57.08
2023-12-28T22:55:27.938Z,56.57
2023-12-28T22:57:56.890Z,57.63
2023-12-28T23:00:25.133Z,57.93
2023-12-28T23:02:52.112Z,58.03
2023-12-28T23:05:18.980Z,57.44
2023-12-28T23:07:45.837Z,56.89
2023-12-28T23:10:15.843Z,56.68
2023-12-28T23:12:42.570Z,57.90
2023-12-28T23:15:10.631Z,57.45
2023-12-28T23:17:37.768Z,57.77
2023-12-28T23:20:06.040Z,56.82
2023-12-28T23:22:33.843Z,55.56
2023-12-28T23:25:01.553Z,56.97
2023-12-28T23:27:29.877Z,57.88
2023-12-28T23:29:56.641Z,57.94
2023-12-28T23:32:23.496Z,58.42
2023-12-28T23:34:50.589Z,57.04
2023-12-28T23:37:17.513Z,56.53
2023-12-28T23:39:45.470Z,56.52
2023-12-28T23:44:39.916Z,55.25
2023-12-28T23:47:07.314Z,55.48
2023-12-28T23:49:35.100Z,55.97
2023-12-28T23:52:02.603Z,55.48
2023-12-28T23:54:29.616Z,55.94
2023-12-28T23:56:56.458Z,55.73
2023-12-28T23:59:23.282Z,54.96
